Time;durP1;ratioP1;P1;durP2;ratioP2;P2;SDS_P1;SDS_P2;PMS_P1;PMS_P2;Temp;Humidity;BMP_temperature;BMP_pressure;BME280_temperature;BME280_humidity;BME280_pressure;Samples;Min_cycle;Max_cycle;Signal;HPM_P1;HPM_P2
2022/09/17 00:01:22;;;;;;;2.73;1.80;;;11.60;99.90;;;;;;5053093;28;20222;-70
2022/09/17 00:03:52;;;;;;;3.80;2.17;;;11.70;99.90;;;;;;5053134;28;20213;-69
2022/09/17 00:06:20;;;;;;;4.20;1.90;;;11.70;99.90;;;;;;5051830;28;20226;-68
2022/09/17 00:08:46;;;;;;;3.10;2.17;;;11.70;99.90;;;;;;5052643;28;20202;-69
2022/09/17 00:11:17;;;;;;;4.03;2.30;;;11.70;99.90;;;;;;5053566;28;20256;-69
2022/09/17 00:13:44;;;;;;;4.13;2.20;;;11.70;99.90;;;;;;5058455;28;20204;-69
2022/09/17 00:16:12;;;;;;;3.00;2.07;;;11.70;99.90;;;;;;5048734;28;20210;-69
2022/09/17 00:18:40;;;;;;;3.60;2.30;;;11.70;99.90;;;;;;5053780;28;20685;-69
2022/09/17 00:21:16;;;;;;;2.93;2.20;;;11.80;99.90;;;;;;5045222;28;20665;-68
2022/09/17 00:23:43;;;;;;;4.67;1.80;;;11.80;99.90;;;;;;5055364;28;20247;-69
2022/09/17 00:26:10;;;;;;;3.30;2.07;;;11.80;99.90;;;;;;5052521;28;20233;-68
2022/09/17 00:28:37;;;;;;;3.03;1.80;;;11.70;99.90;;;;;;5052862;28;20220;-69
2022/09/17 00:31:08;;;;;;;3.03;2.20;;;11.70;99.90;;;;;;5054305;28;20562;-68
2022/09/17 00:33:34;;;;;;;1.70;1.60;;;11.70;99.90;;;;;;5054265;28;20198;-69
2022/09/17 00:36:03;;;;;;;2.23;1.83;;;11.70;99.90;;;;;;5055388;28;20241;-68
2022/09/17 00:38:31;;;;;;;2.90;1.70;;;11.70;99.90;;;;;;5053829;28;20214;-69
2022/09/17 00:40:58;;;;;;;1.87;1.60;;;11.70;99.90;;;;;;5047855;28;20217;-68
2022/09/17 00:43:40;;;;;;;4.17;1.83;;;11.70;99.90;;;;;;5044198;28;20214;-69
2022/09/17 00:46:19;;;;;;;3.87;1.97;;;11.60;99.90;;;;;;5052343;28;20229;-69
2022/09/17 00:48:47;;;;;;;3.13;1.70;;;11.60;99.90;;;;;;5046051;28;20228;-69
2022/09/17 00:51:17;;;;;;;3.93;1.83;;;11.60;99.90;;;;;;5068927;28;20229;-69
2022/09/17 00:53:46;;;;;;;4.07;1.63;;;11.60;99.90;;;;;;5059869;28;20198;-69
2022/09/17 00:56:19;;;;;;;2.37;1.80;;;11.60;99.90;;;;;;5053059;28;20210;-68
2022/09/17 00:58:46;;;;;;;2.70;1.90;;;11.60;99.90;;;;;;5044097;28;20202;-68
2022/09/17 01:01:13;;;;;;;3.30;1.80;;;11.60;99.90;;;;;;5066756;28;20209;-69
2022/09/17 01:03:40;;;;;;;3.63;1.90;;;11.50;99.90;;;;;;5053498;28;20236;-68
2022/09/17 01:06:15;;;;;;;2.30;1.83;;;11.60;99.90;;;;;;5051729;28;20208;-69
2022/09/17 01:08:54;;;;;;;2.30;1.70;;;11.50;99.90;;;;;;5051946;28;20232;-68
2022/09/17 01:11:44;;;;;;;4.03;1.60;;;11.60;99.90;;;;;;5066955;28;20205;-67
2022/09/17 01:14:23;;;;;;;2.73;1.93;;;11.50;99.90;;;;;;5057583;28;20211;-69
2022/09/17 01:16:59;;;;;;;2.83;1.87;;;11.50;99.90;;;;;;5051991;28;20217;-69
2022/09/17 01:19:48;;;;;;;2.73;1.70;;;11.60;99.90;;;;;;5050851;28;20220;-68
2022/09/17 01:22:19;;;;;;;4.10;1.70;;;11.50;99.90;;;;;;5048073;28;20226;-69
2022/09/17 01:25:00;;;;;;;3.43;1.60;;;11.60;99.90;;;;;;5050032;28;20206;-70
2022/09/17 01:28:15;;;;;;;2.40;1.77;;;11.60;99.90;;;;;;5052176;28;20204;-69
2022/09/17 01:31:01;;;;;;;2.90;1.60;;;11.60;99.90;;;;;;5055119;28;20205;-68
2022/09/17 01:33:36;;;;;;;3.83;1.70;;;11.50;99.90;;;;;;5059064;28;20213;-68
2022/09/17 01:36:16;;;;;;;3.33;1.90;;;11.50;99.90;;;;;;5039570;28;20241;-68
2022/09/17 01:38:48;;;;;;;3.20;1.53;;;11.50;99.90;;;;;;5050889;28;20198;-68
2022/09/17 01:41:24;;;;;;;3.53;1.70;;;11.50;99.90;;;;;;5045184;28;20597;-69
2022/09/17 01:43:55;;;;;;;1.90;1.60;;;11.40;99.90;;;;;;5045928;28;20674;-68
2022/09/17 01:46:29;;;;;;;1.90;1.57;;;11.40;99.90;;;;;;5050241;28;20208;-68
2022/09/17 01:49:00;;;;;;;2.93;1.80;;;11.40;99.90;;;;;;5044824;28;20214;-68
2022/09/17 01:51:30;;;;;;;2.70;1.73;;;11.40;99.90;;;;;;5053723;28;20228;-67
2022/09/17 01:54:01;;;;;;;2.40;1.70;;;11.40;99.90;;;;;;5053628;28;20205;-68
2022/09/17 01:56:33;;;;;;;3.23;1.70;;;11.40;99.90;;;;;;5048508;28;20738;-68
2022/09/17 01:59:05;;;;;;;5.13;1.90;;;11.30;99.90;;;;;;5050274;28;20206;-69
2022/09/17 02:01:36;;;;;;;1.93;1.33;;;11.30;99.90;;;;;;5038494;28;20202;-69
2022/09/17 02:04:08;;;;;;;2.87;1.47;;;11.30;99.90;;;;;;5050814;28;20216;-69
2022/09/17 02:06:40;;;;;;;4.93;1.67;;;11.30;99.90;;;;;;5051952;28;20246;-68
2022/09/17 02:09:14;;;;;;;4.03;1.70;;;11.30;99.90;;;;;;5050158;28;20217;-68
2022/09/17 02:11:44;;;;;;;3.33;1.70;;;11.20;99.90;;;;;;5056036;28;20532;-68
2022/09/17 02:14:16;;;;;;;3.10;1.60;;;11.20;99.90;;;;;;5051732;28;20213;-68
2022/09/17 02:16:48;;;;;;;3.30;1.70;;;11.20;99.90;;;;;;5052279;28;20202;-69
2022/09/17 02:19:20;;;;;;;2.63;1.63;;;11.20;99.90;;;;;;5055377;28;20240;-68
2022/09/17 02:21:52;;;;;;;3.47;1.60;;;11.20;99.90;;;;;;5055965;28;20594;-69
2022/09/17 02:24:23;;;;;;;2.13;1.73;;;11.10;99.90;;;;;;5055435;28;20212;-68
2022/09/17 02:26:56;;;;;;;2.97;1.60;;;11.10;99.90;;;;;;5048305;28;20214;-69
2022/09/17 02:29:27;;;;;;;1.63;1.43;;;11.10;99.90;;;;;;5062064;28;20628;-70
2022/09/17 02:31:56;;;;;;;2.73;1.47;;;11.10;99.90;;;;;;5056373;28;20701;-68
2022/09/17 02:34:24;;;;;;;3.93;1.53;;;11.10;99.90;;;;;;5055735;28;20647;-66
2022/09/17 02:36:52;;;;;;;3.90;1.30;;;11.10;99.90;;;;;;5055810;28;20613;-68
2022/09/17 02:39:19;;;;;;;2.10;1.40;;;11.10;99.90;;;;;;5055579;28;20205;-69
2022/09/17 02:41:51;;;;;;;2.47;1.87;;;11.10;99.90;;;;;;5055889;28;20550;-68
2022/09/17 02:44:26;;;;;;;2.40;1.60;;;11.00;99.90;;;;;;5055562;28;20198;-68
2022/09/17 02:47:20;;;;;;;2.97;1.90;;;10.90;99.90;;;;;;5055755;28;20232;-69
2022/09/17 02:50:02;;;;;;;4.60;1.57;;;11.00;99.90;;;;;;5054481;28;20678;-68
2022/09/17 02:52:40;;;;;;;4.00;1.70;;;11.00;99.90;;;;;;5055498;28;20431;-69
2022/09/17 02:55:15;;;;;;;2.10;1.40;;;10.90;99.90;;;;;;5054378;28;20202;-70
2022/09/17 02:57:47;;;;;;;2.93;1.67;;;11.00;99.90;;;;;;5053294;28;20794;-70
2022/09/17 03:00:17;;;;;;;7.30;1.50;;;10.80;99.90;;;;;;5050940;28;20212;-69
2022/09/17 03:02:49;;;;;;;2.83;1.80;;;10.90;99.90;;;;;;5058022;28;20769;-68
2022/09/17 03:05:20;;;;;;;2.40;1.67;;;10.90;99.90;;;;;;5061914;28;20671;-69
2022/09/17 03:07:47;;;;;;;3.20;1.83;;;10.90;99.90;;;;;;5068387;28;20207;-69
2022/09/17 03:10:14;;;;;;;5.23;2.00;;;10.80;99.90;;;;;;5055961;28;20664;-68
2022/09/17 03:12:41;;;;;;;2.93;1.73;;;10.80;99.90;;;;;;5055046;28;20198;-68
2022/09/17 03:15:09;;;;;;;2.57;1.27;;;10.80;99.90;;;;;;5055466;28;20212;-69
2022/09/17 03:17:36;;;;;;;3.13;1.97;;;10.80;99.90;;;;;;5045519;28;20214;-68
2022/09/17 03:20:05;;;;;;;2.77;1.47;;;10.80;99.90;;;;;;5055137;28;20216;-68
2022/09/17 03:22:32;;;;;;;3.20;1.70;;;10.70;99.90;;;;;;5050428;28;20234;-67
2022/09/17 03:24:58;;;;;;;6.80;1.70;;;10.70;99.90;;;;;;5048293;28;20206;-68
2022/09/17 03:27:25;;;;;;;6.83;1.73;;;10.70;99.90;;;;;;5035984;28;20202;-68
2022/09/17 03:29:52;;;;;;;2.87;1.60;;;10.70;99.90;;;;;;5049410;28;20252;-68
2022/09/17 03:32:19;;;;;;;2.67;1.87;;;10.70;99.90;;;;;;5054060;28;20206;-69
2022/09/17 03:34:45;;;;;;;2.27;1.47;;;10.70;99.90;;;;;;5046969;28;20214;-69
2022/09/17 03:37:14;;;;;;;3.83;1.70;;;10.70;99.90;;;;;;5044378;28;20238;-68
2022/09/17 03:39:40;;;;;;;3.53;2.00;;;10.70;99.90;;;;;;5052974;28;20210;-69
2022/09/17 03:42:07;;;;;;;3.63;1.90;;;10.70;99.90;;;;;;5049892;28;20221;-68
2022/09/17 03:44:34;;;;;;;3.80;1.80;;;10.60;99.90;;;;;;5055060;28;20193;-68
2022/09/17 03:47:01;;;;;;;2.87;1.70;;;10.60;99.90;;;;;;5057636;28;20206;-68
2022/09/17 03:49:27;;;;;;;5.27;2.03;;;10.60;99.90;;;;;;5049238;28;20210;-68
2022/09/17 03:51:54;;;;;;;2.77;1.87;;;10.60;99.90;;;;;;5041300;28;20198;-67
2022/09/17 03:54:22;;;;;;;2.83;1.80;;;10.50;99.90;;;;;;5048090;28;20210;-69
2022/09/17 03:56:49;;;;;;;2.03;1.57;;;10.50;99.90;;;;;;5043477;28;20221;-68
2022/09/17 03:59:16;;;;;;;2.80;1.70;;;10.50;99.90;;;;;;5052038;28;20214;-68
2022/09/17 04:01:43;;;;;;;2.47;1.77;;;10.50;99.90;;;;;;5046949;28;20205;-69
2022/09/17 04:04:10;;;;;;;2.43;1.50;;;10.50;99.90;;;;;;5051868;28;20234;-68
2022/09/17 04:06:36;;;;;;;5.03;1.93;;;10.50;99.90;;;;;;5045929;28;20206;-68
2022/09/17 04:09:04;;;;;;;5.00;2.20;;;10.50;99.90;;;;;;5042535;28;20209;-67
2022/09/17 04:11:32;;;;;;;3.33;1.77;;;10.50;99.90;;;;;;5051033;28;20209;-69
2022/09/17 04:13:59;;;;;;;2.33;1.80;;;10.50;99.90;;;;;;5057789;28;20673;-67
2022/09/17 04:16:25;;;;;;;2.10;1.90;;;10.50;99.90;;;;;;5043627;28;20211;-68
2022/09/17 04:18:52;;;;;;;5.97;2.87;;;10.40;99.90;;;;;;5047454;28;20598;-66
2022/09/17 04:21:19;;;;;;;4.67;2.07;;;10.40;99.90;;;;;;5049180;28;20210;-69
2022/09/17 04:23:46;;;;;;;2.73;2.07;;;10.40;99.90;;;;;;5044900;28;20225;-68
2022/09/17 04:26:13;;;;;;;2.70;1.90;;;10.40;99.90;;;;;;5060391;28;20216;-68
2022/09/17 04:28:41;;;;;;;5.23;2.10;;;10.40;99.90;;;;;;5053808;28;20657;-69
2022/09/17 04:31:08;;;;;;;4.30;1.90;;;10.40;99.90;;;;;;5054688;28;20214;-68
2022/09/17 04:33:36;;;;;;;3.67;1.80;;;10.40;99.90;;;;;;5052041;28;20209;-70
2022/09/17 04:36:03;;;;;;;2.13;1.80;;;10.50;99.90;;;;;;5056756;28;20245;-69
2022/09/17 04:38:30;;;;;;;2.63;2.00;;;10.40;99.90;;;;;;5054493;28;20205;-69
2022/09/17 04:40:57;;;;;;;4.83;2.00;;;10.50;99.90;;;;;;5059260;28;20202;-70
2022/09/17 04:43:23;;;;;;;3.67;1.90;;;10.50;99.90;;;;;;5056193;28;20229;-69
2022/09/17 04:45:52;;;;;;;4.07;1.90;;;10.50;99.90;;;;;;5051950;28;20289;-69
2022/09/17 04:48:18;;;;;;;4.23;1.70;;;10.50;99.90;;;;;;5047386;28;20205;-69
2022/09/17 04:50:45;;;;;;;2.30;1.60;;;10.50;99.90;;;;;;5054286;28;20671;-69
2022/09/17 04:53:12;;;;;;;3.07;1.97;;;10.60;99.90;;;;;;5045745;28;20206;-69
2022/09/17 04:55:39;;;;;;;2.70;1.97;;;10.60;99.90;;;;;;5051961;28;20209;-68
2022/09/17 04:58:06;;;;;;;3.33;1.67;;;10.60;99.90;;;;;;5052501;28;20549;-69
2022/09/17 05:00:34;;;;;;;2.60;1.83;;;10.70;99.90;;;;;;5043641;28;20205;-70
2022/09/17 05:03:02;;;;;;;2.13;1.70;;;10.70;99.90;;;;;;5052964;28;20257;-68
2022/09/17 05:05:29;;;;;;;4.67;2.27;;;10.70;99.90;;;;;;5053908;28;20206;-70
2022/09/17 05:07:56;;;;;;;2.87;2.17;;;10.80;99.90;;;;;;5042501;28;20206;-68
2022/09/17 05:10:24;;;;;;;4.60;2.03;;;10.70;99.90;;;;;;5052632;28;20593;-69
2022/09/17 05:12:51;;;;;;;4.07;2.00;;;10.80;99.90;;;;;;5054036;28;20280;-68
2022/09/17 05:15:18;;;;;;;5.23;2.13;;;10.80;99.90;;;;;;5052507;28;20221;-68
2022/09/17 05:17:45;;;;;;;3.63;1.80;;;10.90;99.90;;;;;;5053805;28;20202;-68
2022/09/17 05:20:14;;;;;;;2.57;2.10;;;10.90;99.90;;;;;;5053509;28;20212;-70
2022/09/17 05:22:43;;;;;;;5.10;2.03;;;11.00;99.90;;;;;;5051227;28;20232;-68
2022/09/17 05:25:10;;;;;;;3.43;1.90;;;11.00;99.90;;;;;;5066403;28;20574;-67
2022/09/17 05:27:38;;;;;;;5.17;2.43;;;11.10;99.90;;;;;;5049903;28;20205;-68
2022/09/17 05:30:06;;;;;;;5.17;2.40;;;11.10;99.90;;;;;;5051359;28;20210;-68
2022/09/17 05:32:32;;;;;;;4.40;1.90;;;11.20;99.90;;;;;;5055174;28;20705;-69
2022/09/17 05:34:59;;;;;;;4.43;2.40;;;11.20;99.90;;;;;;5051756;28;20240;-69
2022/09/17 05:37:27;;;;;;;4.87;1.90;;;11.30;99.90;;;;;;5049282;28;20198;-69
2022/09/17 05:39:54;;;;;;;2.40;1.90;;;11.50;99.90;;;;;;5052449;28;20206;-69
2022/09/17 05:42:21;;;;;;;2.87;1.90;;;11.60;99.90;;;;;;5066256;28;20275;-69
2022/09/17 05:44:48;;;;;;;1.80;1.60;;;11.70;99.90;;;;;;5043281;28;20622;-70
2022/09/17 05:47:15;;;;;;;1.97;1.73;;;11.80;99.90;;;;;;5043353;28;20301;-68
2022/09/17 05:49:42;;;;;;;1.77;1.67;;;11.80;99.90;;;;;;5051002;28;20202;-69
2022/09/17 05:52:09;;;;;;;2.57;1.70;;;11.80;99.90;;;;;;5053681;28;20206;-69
2022/09/17 05:54:37;;;;;;;3.83;1.90;;;11.90;99.90;;;;;;5056030;28;20212;-69
2022/09/17 05:57:04;;;;;;;3.33;1.80;;;12.00;99.90;;;;;;5047671;28;20206;-69
2022/09/17 05:59:31;;;;;;;3.53;1.70;;;12.10;99.90;;;;;;5053383;28;20295;-69
2022/09/17 06:01:58;;;;;;;2.63;1.70;;;12.30;99.90;;;;;;5049597;28;20665;-70
2022/09/17 06:04:25;;;;;;;4.73;1.83;;;12.50;99.90;;;;;;5056902;28;20338;-69
2022/09/17 06:06:52;;;;;;;1.33;1.23;;;12.60;99.90;;;;;;5050686;28;20219;-71
2022/09/17 06:09:19;;;;;;;2.23;1.80;;;12.60;99.90;;;;;;5050828;28;20205;-68
2022/09/17 06:11:47;;;;;;;4.57;1.60;;;12.70;99.90;;;;;;5046550;28;20202;-69
2022/09/17 06:14:15;;;;;;;4.53;1.73;;;12.70;99.90;;;;;;5045875;28;20206;-68
2022/09/17 06:16:41;;;;;;;1.33;1.10;;;12.90;99.90;;;;;;5042329;28;20207;-68
2022/09/17 06:19:08;;;;;;;4.00;1.33;;;12.90;99.90;;;;;;5044598;28;20209;-70
2022/09/17 06:21:35;;;;;;;1.83;1.53;;;13.00;99.90;;;;;;5061008;28;20213;-70
2022/09/17 06:24:02;;;;;;;4.50;2.27;;;13.00;99.90;;;;;;5068546;28;20230;-70
2022/09/17 06:26:31;;;;;;;1.70;1.50;;;13.00;99.90;;;;;;5065741;28;20202;-71
2022/09/17 06:29:00;;;;;;;4.50;1.40;;;13.00;99.90;;;;;;5050552;28;20217;-69
2022/09/17 06:31:27;;;;;;;4.60;1.40;;;13.10;99.90;;;;;;5054946;28;20327;-70
2022/09/17 06:33:56;;;;;;;5.83;1.80;;;13.10;99.90;;;;;;5057757;28;20210;-69
2022/09/17 06:36:23;;;;;;;3.87;1.40;;;13.10;99.90;;;;;;5045880;28;20640;-71
2022/09/17 06:38:50;;;;;;;2.73;1.73;;;13.20;99.90;;;;;;5061124;28;20609;-70
2022/09/17 06:41:22;;;;;;;4.93;1.40;;;13.20;99.90;;;;;;5059783;28;20194;-72
2022/09/17 06:43:53;;;;;;;3.97;1.60;;;13.30;99.90;;;;;;5051054;28;20285;-71
2022/09/17 06:46:21;;;;;;;3.50;1.67;;;13.40;99.90;;;;;;5055521;28;20213;-73
2022/09/17 06:49:10;;;;;;;4.40;1.60;;;13.50;99.90;;;;;;5064438;28;20407;-71
2022/09/17 06:51:37;;;;;;;2.00;1.60;;;13.50;99.90;;;;;;5052911;28;20202;-71
2022/09/17 06:54:04;;;;;;;3.70;1.23;;;13.70;99.90;;;;;;5059680;28;20198;-70
2022/09/17 06:56:33;;;;;;;3.17;1.10;;;13.80;99.90;;;;;;5055882;28;20205;-70
2022/09/17 06:59:00;;;;;;;1.90;1.60;;;13.90;99.90;;;;;;5052853;28;20232;-74
2022/09/17 07:01:28;;;;;;;2.57;1.30;;;14.00;99.90;;;;;;5050099;28;20550;-73
2022/09/17 07:03:55;;;;;;;2.20;1.20;;;14.00;99.90;;;;;;5045068;28;20225;-72
2022/09/17 07:06:22;;;;;;;2.80;1.40;;;14.20;99.90;;;;;;5055229;28;20206;-71
2022/09/17 07:08:49;;;;;;;2.53;1.20;;;14.20;99.90;;;;;;5053929;28;20199;-71
2022/09/17 07:11:16;;;;;;;1.97;1.50;;;14.30;99.90;;;;;;5058932;28;20217;-72
2022/09/17 07:13:43;;;;;;;2.93;1.73;;;14.20;99.90;;;;;;5060461;28;20300;-72
2022/09/17 07:16:10;;;;;;;3.93;1.50;;;14.20;99.90;;;;;;5040491;28;20552;-70
2022/09/17 07:18:39;;;;;;;2.33;1.53;;;14.10;99.90;;;;;;5055717;28;20214;-76
2022/09/17 07:21:06;;;;;;;1.60;1.50;;;14.00;99.90;;;;;;5056668;28;20581;-74
2022/09/17 07:23:35;;;;;;;4.70;1.70;;;13.90;99.90;;;;;;5047135;28;21090;-75
2022/09/17 07:26:05;;;;;;;4.43;1.50;;;13.70;99.90;;;;;;5056989;28;20601;-71
2022/09/17 07:28:32;;;;;;;2.50;1.80;;;13.70;99.90;;;;;;5054042;28;20198;-71
2022/09/17 07:31:02;;;;;;;2.70;2.00;;;13.60;99.90;;;;;;5040055;28;20339;-71
2022/09/17 07:33:29;;;;;;;2.80;1.93;;;13.50;99.90;;;;;;5068251;28;20213;-71
2022/09/17 07:36:01;;;;;;;2.57;1.70;;;13.40;99.90;;;;;;5055845;28;20249;-72
2022/09/17 07:38:29;;;;;;;4.83;1.77;;;13.40;99.90;;;;;;5054636;28;20206;-72
2022/09/17 07:40:58;;;;;;;3.17;1.90;;;13.30;99.90;;;;;;5051538;28;20704;-70
2022/09/17 07:43:26;;;;;;;3.00;2.20;;;13.30;99.90;;;;;;5043576;28;20218;-69
2022/09/17 07:45:53;;;;;;;4.73;2.07;;;13.30;99.90;;;;;;5044384;28;20225;-70
2022/09/17 07:48:20;;;;;;;4.97;2.10;;;13.20;99.90;;;;;;5055350;28;20212;-71
2022/09/17 07:50:47;;;;;;;3.90;2.23;;;13.20;99.90;;;;;;5054607;28;20582;-72
2022/09/17 07:53:16;;;;;;;2.87;2.00;;;13.20;99.90;;;;;;5049678;28;20214;-71
2022/09/17 07:55:43;;;;;;;4.07;2.10;;;13.10;99.90;;;;;;5057533;28;20212;-74
2022/09/17 07:58:09;;;;;;;3.47;1.83;;;13.10;99.90;;;;;;5053914;28;20690;-71
2022/09/17 08:00:36;;;;;;;4.47;2.37;;;13.00;99.90;;;;;;5060064;28;20209;-72
2022/09/17 08:03:03;;;;;;;4.23;2.10;;;13.00;99.90;;;;;;5054674;28;20659;-70
2022/09/17 08:05:32;;;;;;;3.97;2.10;;;13.00;99.90;;;;;;5054867;28;20232;-72
2022/09/17 08:07:59;;;;;;;3.70;2.03;;;13.00;99.90;;;;;;5049065;28;20206;-72
2022/09/17 08:10:27;;;;;;;2.97;2.00;;;13.00;99.90;;;;;;5043913;28;21006;-73
2022/09/17 08:12:56;;;;;;;3.27;2.07;;;13.00;99.90;;;;;;5047714;28;20580;-74
2022/09/17 08:15:24;;;;;;;3.03;2.07;;;12.90;99.90;;;;;;5057600;28;20221;-70
2022/09/17 08:17:51;;;;;;;4.80;2.27;;;12.90;99.90;;;;;;5048408;28;20634;-74
2022/09/17 08:20:19;;;;;;;3.57;2.10;;;12.90;99.90;;;;;;5044757;28;20214;-74
2022/09/17 08:22:46;;;;;;;5.23;2.00;;;12.90;99.90;;;;;;5053596;28;20229;-73
2022/09/17 08:25:13;;;;;;;2.23;1.77;;;12.80;99.90;;;;;;5057662;28;20312;-74
2022/09/17 08:27:41;;;;;;;2.87;1.70;;;12.80;99.90;;;;;;5047075;28;20595;-73
2022/09/17 08:30:08;;;;;;;1.87;1.47;;;12.80;99.90;;;;;;5046977;28;20206;-75
2022/09/17 08:32:35;;;;;;;3.80;1.70;;;12.80;99.90;;;;;;5041072;28;20217;-74
2022/09/17 08:35:02;;;;;;;4.67;1.77;;;12.90;99.90;;;;;;5052308;28;20225;-72
2022/09/17 08:37:29;;;;;;;3.30;1.60;;;12.90;99.90;;;;;;5057671;28;20197;-72
2022/09/17 08:39:57;;;;;;;3.73;1.60;;;13.00;99.90;;;;;;5064352;28;20263;-72
2022/09/17 08:42:32;;;;;;;3.80;1.70;;;13.00;99.90;;;;;;5054208;28;20523;-73
2022/09/17 08:45:03;;;;;;;2.07;1.60;;;13.10;99.90;;;;;;5053679;28;20595;-72
2022/09/17 08:47:35;;;;;;;2.87;1.50;;;13.10;99.90;;;;;;5067113;28;20206;-74
2022/09/17 08:50:04;;;;;;;1.70;1.50;;;13.20;99.90;;;;;;5053747;28;20206;-73
2022/09/17 08:53:07;;;;;;;2.33;1.50;;;13.20;99.90;;;;;;5051539;28;20214;-74
2022/09/17 08:55:40;;;;;;;2.83;1.40;;;13.40;99.90;;;;;;5016603;28;20233;-74
2022/09/17 08:58:39;;;;;;;2.53;1.73;;;13.60;99.90;;;;;;5047045;28;20197;-73
2022/09/17 09:01:18;;;;;;;2.50;1.70;;;13.80;99.90;;;;;;5050357;28;20212;-73
2022/09/17 09:04:04;;;;;;;2.10;1.40;;;14.10;99.90;;;;;;5051002;28;20206;-73
2022/09/17 09:06:35;;;;;;;1.57;1.30;;;14.20;99.90;;;;;;5052796;28;20194;-72
2022/09/17 09:09:06;;;;;;;1.10;1.10;;;14.30;99.90;;;;;;5053152;28;20213;-73
2022/09/17 09:11:34;;;;;;;1.70;1.27;;;14.30;99.90;;;;;;5059775;28;20217;-73
2022/09/17 09:14:11;;;;;;;1.97;1.20;;;14.30;99.90;;;;;;5059936;28;20205;-68
2022/09/17 09:16:44;;;;;;;1.93;1.40;;;14.30;99.90;;;;;;5046093;28;20275;-72
2022/09/17 09:19:19;;;;;;;4.07;1.30;;;14.20;99.90;;;;;;5042410;28;20202;-71
2022/09/17 09:22:01;;;;;;;2.43;1.20;;;14.10;99.90;;;;;;5052041;28;20229;-73
2022/09/17 09:24:38;;;;;;;2.17;1.37;;;14.00;99.90;;;;;;5046424;28;20304;-71
2022/09/17 09:27:15;;;;;;;2.00;1.20;;;13.90;99.90;;;;;;5050373;28;20672;-72
2022/09/17 09:29:51;;;;;;;1.00;1.00;;;13.90;99.90;;;;;;5053369;28;20208;-69
2022/09/17 09:32:28;;;;;;;4.67;1.47;;;13.90;99.90;;;;;;5068796;28;20676;-74
2022/09/17 09:35:03;;;;;;;1.83;1.73;;;14.00;99.90;;;;;;5043086;28;20663;-75
2022/09/17 09:37:33;;;;;;;2.23;1.30;;;14.40;99.90;;;;;;5044128;28;20208;-70
2022/09/17 09:40:07;;;;;;;1.83;1.20;;;14.70;99.90;;;;;;5050126;28;20203;-74
2022/09/17 09:42:39;;;;;;;3.07;1.10;;;14.70;99.90;;;;;;5055967;28;20600;-73
2022/09/17 09:45:15;;;;;;;1.10;1.00;;;14.80;99.90;;;;;;5048871;28;20230;-71
2022/09/17 09:47:53;;;;;;;2.10;1.30;;;15.00;99.90;;;;;;5049408;28;20254;-72
2022/09/17 09:50:33;;;;;;;3.43;1.20;;;15.10;99.90;;;;;;5052605;28;20201;-68
2022/09/17 09:53:10;;;;;;;3.13;1.20;;;15.10;99.90;;;;;;5050366;28;20281;-73
2022/09/17 09:55:53;;;;;;;3.60;1.20;;;14.90;99.90;;;;;;5050839;28;20215;-75
2022/09/17 09:58:28;;;;;;;1.20;1.10;;;14.80;99.90;;;;;;5048988;28;20204;-76
2022/09/17 10:00:55;;;;;;;4.43;1.47;;;14.60;99.90;;;;;;5050183;28;20215;-74
2022/09/17 10:03:27;;;;;;;2.60;0.90;;;14.50;99.90;;;;;;5059388;28;20644;-75
2022/09/17 10:05:57;;;;;;;2.30;1.10;;;14.40;99.90;;;;;;5046992;28;20241;-75
2022/09/17 10:08:24;;;;;;;2.17;1.30;;;14.40;99.90;;;;;;5060650;28;20206;-75
2022/09/17 10:10:57;;;;;;;1.90;1.00;;;14.40;99.90;;;;;;5051868;28;20202;-76
2022/09/17 10:13:25;;;;;;;3.67;1.27;;;14.30;99.90;;;;;;5049685;28;20202;-75
2022/09/17 10:15:52;;;;;;;2.00;0.90;;;14.20;99.90;;;;;;5045274;28;20231;-76
2022/09/17 10:18:21;;;;;;;2.97;1.50;;;14.20;99.90;;;;;;5040973;28;20222;-75
2022/09/17 10:20:58;;;;;;;1.67;1.30;;;14.20;99.90;;;;;;5053719;28;20662;-74
2022/09/17 10:23:27;;;;;;;3.27;1.03;;;14.10;99.90;;;;;;5052101;28;20623;-74
2022/09/17 10:25:55;;;;;;;2.00;1.07;;;14.10;99.90;;;;;;5050175;28;20237;-74
2022/09/17 10:28:41;;;;;;;1.70;1.20;;;14.00;99.90;;;;;;5052616;28;20205;-74
2022/09/17 10:31:10;;;;;;;2.27;1.10;;;13.90;99.90;;;;;;5048015;28;20217;-76
2022/09/17 10:33:40;;;;;;;1.30;1.00;;;13.90;99.90;;;;;;5052841;28;20333;-75
2022/09/17 10:36:13;;;;;;;2.10;1.10;;;13.80;99.90;;;;;;5057617;28;20241;-75
2022/09/17 10:38:42;;;;;;;1.20;1.00;;;13.70;99.90;;;;;;5048714;28;20259;-73
2022/09/17 10:41:14;;;;;;;2.70;1.07;;;13.70;99.90;;;;;;5057734;28;20212;-75
2022/09/17 10:43:42;;;;;;;1.60;1.17;;;13.70;99.90;;;;;;5063981;28;20205;-74
2022/09/17 10:46:15;;;;;;;3.07;1.20;;;13.70;99.90;;;;;;5059063;28;20216;-74
2022/09/17 10:48:45;;;;;;;0.80;0.80;;;13.90;99.90;;;;;;5061800;28;20685;-75
2022/09/17 10:51:22;;;;;;;4.23;1.03;;;14.10;99.90;;;;;;5057090;28;20220;-74
2022/09/17 10:54:27;;;;;;;1.60;0.97;;;14.30;99.90;;;;;;5057267;28;20205;-74
2022/09/17 10:56:57;;;;;;;3.73;1.10;;;14.30;99.90;;;;;;5044410;28;20260;-74
2022/09/17 10:59:59;;;;;;;1.53;0.83;;;14.30;99.90;;;;;;5057057;28;20213;-75
2022/09/17 11:03:16;;;;;;;1.23;0.87;;;14.30;99.90;;;;;;5048796;28;20202;-75
2022/09/17 11:06:05;;;;;;;1.10;1.00;;;14.20;99.90;;;;;;5049986;28;20214;-74
2022/09/17 11:08:42;;;;;;;2.30;1.00;;;14.20;99.90;;;;;;5062004;28;20239;-71
2022/09/17 11:11:17;;;;;;;1.93;0.97;;;14.20;99.90;;;;;;5053799;28;20210;-76
2022/09/17 11:14:02;;;;;;;2.20;1.10;;;14.10;99.90;;;;;;5043005;28;20233;-75
2022/09/17 11:16:39;;;;;;;1.57;0.93;;;14.30;99.90;;;;;;5053341;28;20753;-72
2022/09/17 11:19:20;;;;;;;1.63;1.00;;;14.80;99.90;;;;;;5052288;28;20688;-73
2022/09/17 11:21:50;;;;;;;1.10;1.00;;;15.40;99.90;;;;;;5062944;28;20224;-72
2022/09/17 11:24:45;;;;;;;1.53;1.03;;;15.60;99.90;;;;;;5051981;28;20245;-73
2022/09/17 11:27:22;;;;;;;1.30;1.07;;;15.70;99.90;;;;;;5051693;28;20206;-75
2022/09/17 11:30:03;;;;;;;2.10;1.17;;;15.60;99.90;;;;;;5056833;28;20232;-73
2022/09/17 11:32:46;;;;;;;4.90;1.10;;;15.50;99.90;;;;;;5063395;28;20202;-69
2022/09/17 11:35:16;;;;;;;1.50;1.40;;;15.30;99.90;;;;;;5055545;28;20203;-69
2022/09/17 11:37:49;;;;;;;2.17;1.47;;;15.30;99.90;;;;;;5058994;28;20198;-68
2022/09/17 11:40:22;;;;;;;2.27;1.03;;;15.20;99.90;;;;;;5062348;28;20569;-68
2022/09/17 11:42:54;;;;;;;1.40;1.27;;;15.30;99.90;;;;;;5062127;28;20209;-67
2022/09/17 11:45:24;;;;;;;1.67;1.00;;;15.50;99.90;;;;;;5049372;28;20214;-67
2022/09/17 11:47:57;;;;;;;1.97;1.30;;;16.00;99.90;;;;;;5062327;28;20202;-69
2022/09/17 11:50:28;;;;;;;1.67;1.30;;;17.00;99.90;;;;;;5046649;28;20202;-67
2022/09/17 11:53:04;;;;;;;1.27;1.17;;;18.10;99.90;;;;;;5054736;28;20555;-67
2022/09/17 11:55:38;;;;;;;2.80;1.60;;;18.80;99.90;;;;;;5047169;28;20205;-66
2022/09/17 11:58:14;;;;;;;2.00;1.17;;;19.00;99.90;;;;;;5059418;28;20723;-68
2022/09/17 12:00:49;;;;;;;1.15;0.98;;;19.30;99.90;;;;;;5047140;28;20208;-72
2022/09/17 12:03:21;;;;;;;1.00;0.90;;;19.40;99.90;;;;;;5050532;28;20653;-71
2022/09/17 12:05:52;;;;;;;1.20;1.10;;;19.20;99.90;;;;;;5061987;28;20220;-71
2022/09/17 12:08:23;;;;;;;2.10;1.00;;;18.90;99.90;;;;;;5063447;28;20213;-66
2022/09/17 12:10:57;;;;;;;1.65;1.45;;;18.50;99.90;;;;;;5050260;28;20198;-73
2022/09/17 12:13:32;;;;;;;1.58;1.00;;;18.00;99.90;;;;;;5051028;28;20285;-74
2022/09/17 12:16:13;;;;;;;0.90;0.90;;;17.60;99.90;;;;;;5059086;28;20410;-72
2022/09/17 12:18:56;;;;;;;0.85;0.80;;;17.30;99.90;;;;;;5051257;28;20201;-73
2022/09/17 12:21:29;;;;;;;1.17;0.98;;;16.90;99.90;;;;;;5040454;28;20206;-73
2022/09/17 12:24:00;;;;;;;1.57;1.03;;;16.70;99.90;;;;;;5053452;28;20213;-71
2022/09/17 12:26:38;;;;;;;0.90;0.90;;;16.50;99.90;;;;;;5062004;28;20752;-71
2022/09/17 12:29:17;;;;;;;1.50;1.00;;;16.30;99.90;;;;;;5051987;28;20288;-72
2022/09/17 12:31:52;;;;;;;1.50;1.10;;;16.20;99.90;;;;;;5057272;28;20581;-73
2022/09/17 12:34:28;;;;;;;1.33;1.10;;;16.10;99.90;;;;;;5041115;28;20623;-71
2022/09/17 12:37:04;;;;;;;3.47;1.17;;;16.00;99.90;;;;;;5052189;28;20241;-71
2022/09/17 12:39:51;;;;;;;2.40;1.23;;;15.90;99.90;;;;;;5037896;28;20198;-71
2022/09/17 12:42:32;;;;;;;2.30;1.40;;;15.80;99.90;;;;;;5049678;28;20558;-72
2022/09/17 12:45:14;;;;;;;1.67;1.17;;;15.80;99.90;;;;;;5050911;28;20235;-72
2022/09/17 12:48:11;;;;;;;1.60;1.50;;;15.70;99.90;;;;;;5052600;28;20210;-71
2022/09/17 12:50:46;;;;;;;1.53;1.40;;;15.70;99.90;;;;;;5023244;28;20222;-71
2022/09/17 12:53:22;;;;;;;1.50;1.40;;;15.70;99.90;;;;;;5053351;28;20217;-71
2022/09/17 12:56:05;;;;;;;1.70;1.60;;;15.70;99.90;;;;;;5053753;28;20202;-71
2022/09/17 12:58:49;;;;;;;2.07;1.60;;;15.60;99.90;;;;;;5052834;28;20681;-71
2022/09/17 13:01:27;;;;;;;1.97;1.77;;;15.60;99.90;;;;;;5054953;28;20228;-71
2022/09/17 13:03:58;;;;;;;2.53;1.77;;;15.50;99.90;;;;;;5052149;28;20198;-71
2022/09/17 13:07:05;;;;;;;2.33;1.70;;;15.40;99.90;;;;;;5051462;28;20580;-71
2022/09/17 13:10:14;;;;;;;1.97;1.80;;;15.40;99.90;;;;;;5052657;28;20217;-72
2022/09/17 13:12:46;;;;;;;2.80;1.57;;;15.30;99.90;;;;;;5045990;28;20415;-71